sensor_id;sensor_type;location;lat;lon;timestamp;P1;durP1;ratioP1;P2;durP2;ratioP2
35877;SDS011;21982;49.804;24.072;2023-07-13T00:02:05;10.07;;;6.40;;
35877;SDS011;21982;49.804;24.072;2023-07-13T00:04:30;12.38;;;6.20;;
35877;SDS011;21982;49.804;24.072;2023-07-13T00:06:55;9.63;;;6.10;;
35877;SDS011;21982;49.804;24.072;2023-07-13T00:09:21;9.20;;;5.65;;
35877;SDS011;21982;49.804;24.072;2023-07-13T00:11:50;9.52;;;5.85;;
35877;SDS011;21982;49.804;24.072;2023-07-13T00:14:17;11.15;;;6.65;;
35877;SDS011;21982;49.804;24.072;2023-07-13T00:16:42;9.45;;;6.47;;
35877;SDS011;21982;49.804;24.072;2023-07-13T00:19:11;9.98;;;6.13;;
35877;SDS011;21982;49.804;24.072;2023-07-13T00:21:38;9.98;;;5.78;;
35877;SDS011;21982;49.804;24.072;2023-07-13T00:24:05;11.85;;;6.90;;
35877;SDS011;21982;49.804;24.072;2023-07-13T00:26:32;9.23;;;5.82;;
35877;SDS011;21982;49.804;24.072;2023-07-13T00:28:58;10.60;;;5.85;;
35877;SDS011;21982;49.804;24.072;2023-07-13T00:31:24;10.85;;;5.80;;
35877;SDS011;21982;49.804;24.072;2023-07-13T00:33:49;10.13;;;5.78;;
35877;SDS011;21982;49.804;24.072;2023-07-13T00:36:15;9.93;;;6.03;;
35877;SDS011;21982;49.804;24.072;2023-07-13T00:38:40;10.48;;;5.95;;
35877;SDS011;21982;49.804;24.072;2023-07-13T00:41:06;9.95;;;6.55;;
35877;SDS011;21982;49.804;24.072;2023-07-13T00:43:31;12.00;;;6.53;;
35877;SDS011;21982;49.804;24.072;2023-07-13T00:46:11;10.98;;;5.90;;
35877;SDS011;21982;49.804;24.072;2023-07-13T00:48:43;11.13;;;5.97;;
35877;SDS011;21982;49.804;24.072;2023-07-13T00:51:12;10.90;;;6.68;;
35877;SDS011;21982;49.804;24.072;2023-07-13T00:53:38;10.23;;;6.82;;
35877;SDS011;21982;49.804;24.072;2023-07-13T00:56:04;9.07;;;5.82;;
35877;SDS011;21982;49.804;24.072;2023-07-13T00:58:31;8.73;;;6.00;;
35877;SDS011;21982;49.804;24.072;2023-07-13T01:00:57;12.68;;;6.70;;
35877;SDS011;21982;49.804;24.072;2023-07-13T01:03:23;11.07;;;7.18;;
35877;SDS011;21982;49.804;24.072;2023-07-13T01:05:49;13.48;;;6.15;;
35877;SDS011;21982;49.804;24.072;2023-07-13T01:08:15;12.80;;;7.32;;
35877;SDS011;21982;49.804;24.072;2023-07-13T01:10:41;9.93;;;6.30;;
35877;SDS011;21982;49.804;24.072;2023-07-13T01:13:07;10.60;;;6.18;;
35877;SDS011;21982;49.804;24.072;2023-07-13T01:18:07;11.13;;;6.55;;
35877;SDS011;21982;49.804;24.072;2023-07-13T01:20:36;9.68;;;6.30;;
35877;SDS011;21982;49.804;24.072;2023-07-13T01:23:08;11.45;;;6.40;;
35877;SDS011;21982;49.804;24.072;2023-07-13T01:25:36;10.35;;;5.90;;
35877;SDS011;21982;49.804;24.072;2023-07-13T01:28:03;10.35;;;6.40;;
35877;SDS011;21982;49.804;24.072;2023-07-13T01:30:29;10.65;;;6.85;;
35877;SDS011;21982;49.804;24.072;2023-07-13T01:32:56;9.75;;;6.72;;
35877;SDS011;21982;49.804;24.072;2023-07-13T01:35:21;12.05;;;6.72;;
35877;SDS011;21982;49.804;24.072;2023-07-13T01:37:46;10.52;;;6.47;;
35877;SDS011;21982;49.804;24.072;2023-07-13T01:40:13;10.20;;;5.78;;
35877;SDS011;21982;49.804;24.072;2023-07-13T01:42:38;11.35;;;7.10;;
35877;SDS011;21982;49.804;24.072;2023-07-13T01:45:05;12.43;;;6.45;;
35877;SDS011;21982;49.804;24.072;2023-07-13T01:47:31;9.48;;;6.13;;
35877;SDS011;21982;49.804;24.072;2023-07-13T01:49:57;10.63;;;7.00;;
35877;SDS011;21982;49.804;24.072;2023-07-13T01:52:22;10.38;;;5.97;;
35877;SDS011;21982;49.804;24.072;2023-07-13T01:54:48;10.75;;;6.35;;
35877;SDS011;21982;49.804;24.072;2023-07-13T01:57:14;12.00;;;7.32;;
35877;SDS011;21982;49.804;24.072;2023-07-13T01:59:39;11.98;;;7.15;;
35877;SDS011;21982;49.804;24.072;2023-07-13T02:02:04;10.10;;;5.95;;
35877;SDS011;21982;49.804;24.072;2023-07-13T02:04:30;11.50;;;7.03;;
35877;SDS011;21982;49.804;24.072;2023-07-13T02:06:56;10.93;;;7.43;;
35877;SDS011;21982;49.804;24.072;2023-07-13T02:09:21;11.60;;;6.70;;
35877;SDS011;21982;49.804;24.072;2023-07-13T02:11:47;11.38;;;6.60;;
35877;SDS011;21982;49.804;24.072;2023-07-13T02:14:13;11.77;;;6.60;;
35877;SDS011;21982;49.804;24.072;2023-07-13T02:16:40;11.13;;;7.00;;
35877;SDS011;21982;49.804;24.072;2023-07-13T02:19:05;10.50;;;7.00;;
35877;SDS011;21982;49.804;24.072;2023-07-13T02:21:31;10.00;;;6.20;;
35877;SDS011;21982;49.804;24.072;2023-07-13T02:23:56;9.68;;;6.97;;
35877;SDS011;21982;49.804;24.072;2023-07-13T02:26:22;9.85;;;6.05;;
35877;SDS011;21982;49.804;24.072;2023-07-13T02:28:48;12.10;;;6.30;;
35877;SDS011;21982;49.804;24.072;2023-07-13T02:31:15;11.13;;;7.15;;
35877;SDS011;21982;49.804;24.072;2023-07-13T02:33:42;11.80;;;6.50;;
35877;SDS011;21982;49.804;24.072;2023-07-13T02:36:08;10.75;;;6.75;;
35877;SDS011;21982;49.804;24.072;2023-07-13T02:38:36;10.95;;;6.80;;
35877;SDS011;21982;49.804;24.072;2023-07-13T02:41:02;9.50;;;6.40;;
35877;SDS011;21982;49.804;24.072;2023-07-13T02:43:28;10.55;;;6.47;;
35877;SDS011;21982;49.804;24.072;2023-07-13T02:45:55;11.15;;;6.13;;
35877;SDS011;21982;49.804;24.072;2023-07-13T02:48:20;10.93;;;6.78;;
35877;SDS011;21982;49.804;24.072;2023-07-13T02:50:45;14.30;;;7.63;;
35877;SDS011;21982;49.804;24.072;2023-07-13T02:53:11;11.45;;;6.60;;
35877;SDS011;21982;49.804;24.072;2023-07-13T02:55:36;15.13;;;6.60;;
35877;SDS011;21982;49.804;24.072;2023-07-13T02:58:02;11.52;;;7.20;;
35877;SDS011;21982;49.804;24.072;2023-07-13T03:00:27;10.88;;;6.97;;
35877;SDS011;21982;49.804;24.072;2023-07-13T03:02:53;11.63;;;6.85;;
35877;SDS011;21982;49.804;24.072;2023-07-13T03:05:21;11.23;;;5.97;;
35877;SDS011;21982;49.804;24.072;2023-07-13T03:07:47;12.25;;;6.25;;
35877;SDS011;21982;49.804;24.072;2023-07-13T03:10:12;11.75;;;7.90;;
35877;SDS011;21982;49.804;24.072;2023-07-13T03:12:38;10.38;;;6.47;;
35877;SDS011;21982;49.804;24.072;2023-07-13T03:15:04;10.27;;;6.78;;
35877;SDS011;21982;49.804;24.072;2023-07-13T03:17:29;10.30;;;6.75;;
35877;SDS011;21982;49.804;24.072;2023-07-13T03:19:55;9.95;;;6.00;;
35877;SDS011;21982;49.804;24.072;2023-07-13T03:22:21;13.32;;;6.57;;
35877;SDS011;21982;49.804;24.072;2023-07-13T03:24:47;9.07;;;6.68;;
35877;SDS011;21982;49.804;24.072;2023-07-13T03:27:13;8.98;;;6.05;;
35877;SDS011;21982;49.804;24.072;2023-07-13T03:29:39;10.48;;;6.28;;
35877;SDS011;21982;49.804;24.072;2023-07-13T03:32:05;12.52;;;6.60;;
35877;SDS011;21982;49.804;24.072;2023-07-13T03:34:31;11.70;;;5.72;;
35877;SDS011;21982;49.804;24.072;2023-07-13T03:36:57;10.00;;;6.63;;
35877;SDS011;21982;49.804;24.072;2023-07-13T03:39:23;10.23;;;6.22;;
35877;SDS011;21982;49.804;24.072;2023-07-13T03:41:48;10.25;;;6.45;;
35877;SDS011;21982;49.804;24.072;2023-07-13T03:44:15;10.48;;;6.80;;
35877;SDS011;21982;49.804;24.072;2023-07-13T03:46:41;10.07;;;6.38;;
35877;SDS011;21982;49.804;24.072;2023-07-13T03:49:07;11.63;;;6.40;;
35877;SDS011;21982;49.804;24.072;2023-07-13T03:51:33;11.10;;;6.43;;
35877;SDS011;21982;49.804;24.072;2023-07-13T03:53:59;11.05;;;7.00;;
35877;SDS011;21982;49.804;24.072;2023-07-13T03:56:24;11.23;;;7.05;;
35877;SDS011;21982;49.804;24.072;2023-07-13T03:58:50;11.98;;;7.28;;
35877;SDS011;21982;49.804;24.072;2023-07-13T04:01:17;12.13;;;6.47;;
35877;SDS011;21982;49.804;24.072;2023-07-13T04:03:43;11.55;;;6.32;;
35877;SDS011;21982;49.804;24.072;2023-07-13T04:09:03;11.48;;;6.47;;
35877;SDS011;21982;49.804;24.072;2023-07-13T04:11:32;10.45;;;6.40;;
35877;SDS011;21982;49.804;24.072;2023-07-13T04:13:58;12.82;;;7.45;;
35877;SDS011;21982;49.804;24.072;2023-07-13T04:16:24;9.75;;;5.65;;
35877;SDS011;21982;49.804;24.072;2023-07-13T04:18:49;12.30;;;6.70;;
35877;SDS011;21982;49.804;24.072;2023-07-13T04:21:19;11.27;;;7.53;;
35877;SDS011;21982;49.804;24.072;2023-07-13T04:23:45;12.18;;;5.40;;
35877;SDS011;21982;49.804;24.072;2023-07-13T04:26:10;10.13;;;6.25;;
35877;SDS011;21982;49.804;24.072;2023-07-13T04:28:36;11.25;;;6.35;;
35877;SDS011;21982;49.804;24.072;2023-07-13T04:31:01;11.13;;;6.63;;
35877;SDS011;21982;49.804;24.072;2023-07-13T04:33:27;13.82;;;5.63;;
35877;SDS011;21982;49.804;24.072;2023-07-13T04:35:53;10.35;;;5.78;;
35877;SDS011;21982;49.804;24.072;2023-07-13T04:38:21;9.82;;;5.38;;
35877;SDS011;21982;49.804;24.072;2023-07-13T04:40:47;11.35;;;6.20;;
35877;SDS011;21982;49.804;24.072;2023-07-13T04:43:13;9.73;;;5.63;;
35877;SDS011;21982;49.804;24.072;2023-07-13T04:45:38;11.10;;;6.50;;
35877;SDS011;21982;49.804;24.072;2023-07-13T04:48:04;14.50;;;6.85;;
35877;SDS011;21982;49.804;24.072;2023-07-13T04:50:29;10.50;;;5.40;;
35877;SDS011;21982;49.804;24.072;2023-07-13T04:52:55;15.00;;;5.93;;
35877;SDS011;21982;49.804;24.072;2023-07-13T04:55:20;11.40;;;6.60;;
35877;SDS011;21982;49.804;24.072;2023-07-13T04:57:46;9.57;;;5.57;;
35877;SDS011;21982;49.804;24.072;2023-07-13T05:00:12;11.15;;;6.25;;
35877;SDS011;21982;49.804;24.072;2023-07-13T05:02:39;9.68;;;6.57;;
35877;SDS011;21982;49.804;24.072;2023-07-13T05:05:04;9.68;;;6.00;;
35877;SDS011;21982;49.804;24.072;2023-07-13T05:07:31;10.20;;;6.88;;
35877;SDS011;21982;49.804;24.072;2023-07-13T05:09:58;13.32;;;6.35;;
35877;SDS011;21982;49.804;24.072;2023-07-13T05:12:24;12.75;;;5.82;;
35877;SDS011;21982;49.804;24.072;2023-07-13T05:14:50;9.52;;;5.38;;
35877;SDS011;21982;49.804;24.072;2023-07-13T05:17:15;10.18;;;6.57;;
35877;SDS011;21982;49.804;24.072;2023-07-13T05:19:41;11.68;;;7.03;;
35877;SDS011;21982;49.804;24.072;2023-07-13T05:22:06;10.25;;;6.13;;
35877;SDS011;21982;49.804;24.072;2023-07-13T05:24:32;9.20;;;5.53;;
35877;SDS011;21982;49.804;24.072;2023-07-13T05:26:57;11.05;;;5.45;;
35877;SDS011;21982;49.804;24.072;2023-07-13T05:29:23;9.45;;;6.15;;
35877;SDS011;21982;49.804;24.072;2023-07-13T05:31:48;11.55;;;5.32;;
35877;SDS011;21982;49.804;24.072;2023-07-13T05:34:14;9.77;;;6.00;;
35877;SDS011;21982;49.804;24.072;2023-07-13T05:36:40;9.98;;;5.90;;
35877;SDS011;21982;49.804;24.072;2023-07-13T05:39:06;12.70;;;6.95;;
35877;SDS011;21982;49.804;24.072;2023-07-13T05:41:31;11.65;;;6.50;;
35877;SDS011;21982;49.804;24.072;2023-07-13T05:43:56;9.90;;;5.93;;
35877;SDS011;21982;49.804;24.072;2023-07-13T05:46:22;9.65;;;5.53;;
35877;SDS011;21982;49.804;24.072;2023-07-13T05:48:47;14.85;;;6.85;;
35877;SDS011;21982;49.804;24.072;2023-07-13T05:51:13;13.70;;;7.03;;
35877;SDS011;21982;49.804;24.072;2023-07-13T05:53:38;11.10;;;5.95;;
35877;SDS011;21982;49.804;24.072;2023-07-13T05:56:04;13.07;;;6.63;;
35877;SDS011;21982;49.804;24.072;2023-07-13T05:58:30;10.65;;;5.50;;
35877;SDS011;21982;49.804;24.072;2023-07-13T06:01:02;10.60;;;5.10;;
35877;SDS011;21982;49.804;24.072;2023-07-13T06:03:34;15.55;;;5.22;;
35877;SDS011;21982;49.804;24.072;2023-07-13T06:06:00;10.85;;;5.10;;
35877;SDS011;21982;49.804;24.072;2023-07-13T06:08:26;8.65;;;4.88;;
35877;SDS011;21982;49.804;24.072;2023-07-13T06:10:52;9.10;;;5.85;;
35877;SDS011;21982;49.804;24.072;2023-07-13T06:13:18;7.35;;;4.72;;
35877;SDS011;21982;49.804;24.072;2023-07-13T06:15:51;7.75;;;5.15;;
35877;SDS011;21982;49.804;24.072;2023-07-13T06:20:43;11.18;;;5.45;;
35877;SDS011;21982;49.804;24.072;2023-07-13T06:23:08;12.25;;;5.40;;
35877;SDS011;21982;49.804;24.072;2023-07-13T06:25:34;11.88;;;5.65;;
35877;SDS011;21982;49.804;24.072;2023-07-13T06:27:59;13.38;;;6.25;;
35877;SDS011;21982;49.804;24.072;2023-07-13T06:30:25;13.13;;;6.40;;
35877;SDS011;21982;49.804;24.072;2023-07-13T06:32:51;10.95;;;5.65;;
35877;SDS011;21982;49.804;24.072;2023-07-13T06:35:17;7.72;;;4.72;;
35877;SDS011;21982;49.804;24.072;2023-07-13T06:37:43;17.02;;;5.75;;
35877;SDS011;21982;49.804;24.072;2023-07-13T06:40:08;10.52;;;5.65;;
35877;SDS011;21982;49.804;24.072;2023-07-13T06:42:34;10.45;;;5.20;;
35877;SDS011;21982;49.804;24.072;2023-07-13T06:45:02;10.80;;;4.82;;
35877;SDS011;21982;49.804;24.072;2023-07-13T06:47:28;11.75;;;5.15;;
35877;SDS011;21982;49.804;24.072;2023-07-13T06:49:59;9.07;;;5.55;;
35877;SDS011;21982;49.804;24.072;2023-07-13T06:52:25;13.10;;;5.30;;
35877;SDS011;21982;49.804;24.072;2023-07-13T06:54:51;10.35;;;5.05;;
35877;SDS011;21982;49.804;24.072;2023-07-13T06:57:16;11.85;;;5.82;;
35877;SDS011;21982;49.804;24.072;2023-07-13T06:59:41;10.77;;;5.38;;
35877;SDS011;21982;49.804;24.072;2023-07-13T07:02:08;9.05;;;4.97;;
35877;SDS011;21982;49.804;24.072;2023-07-13T07:04:35;10.30;;;5.60;;
35877;SDS011;21982;49.804;24.072;2023-07-13T07:07:01;6.70;;;4.50;;
35877;SDS011;21982;49.804;24.072;2023-07-13T07:09:26;11.82;;;5.03;;
35877;SDS011;21982;49.804;24.072;2023-07-13T07:11:52;8.88;;;4.75;;
35877;SDS011;21982;49.804;24.072;2023-07-13T07:14:17;10.40;;;6.03;;
35877;SDS011;21982;49.804;24.072;2023-07-13T07:16:43;10.00;;;4.57;;
35877;SDS011;21982;49.804;24.072;2023-07-13T07:19:08;14.05;;;6.03;;
35877;SDS011;21982;49.804;24.072;2023-07-13T07:21:34;9.38;;;4.63;;
35877;SDS011;21982;49.804;24.072;2023-07-13T07:23:59;8.80;;;4.78;;
35877;SDS011;21982;49.804;24.072;2023-07-13T07:26:25;11.52;;;6.93;;
35877;SDS011;21982;49.804;24.072;2023-07-13T07:28:53;10.93;;;5.30;;
35877;SDS011;21982;49.804;24.072;2023-07-13T07:31:19;8.10;;;5.00;;
35877;SDS011;21982;49.804;24.072;2023-07-13T07:33:44;7.10;;;4.35;;
35877;SDS011;21982;49.804;24.072;2023-07-13T07:36:10;10.25;;;5.18;;
35877;SDS011;21982;49.804;24.072;2023-07-13T07:38:36;6.95;;;4.47;;
35877;SDS011;21982;49.804;24.072;2023-07-13T07:41:03;8.73;;;5.40;;
35877;SDS011;21982;49.804;24.072;2023-07-13T07:43:29;12.13;;;5.90;;
35877;SDS011;21982;49.804;24.072;2023-07-13T07:45:56;10.05;;;5.25;;
35877;SDS011;21982;49.804;24.072;2023-07-13T07:48:21;8.38;;;4.57;;
35877;SDS011;21982;49.804;24.072;2023-07-13T07:50:47;9.63;;;5.03;;
35877;SDS011;21982;49.804;24.072;2023-07-13T07:53:12;10.57;;;5.00;;
35877;SDS011;21982;49.804;24.072;2023-07-13T07:55:38;11.65;;;5.38;;
35877;SDS011;21982;49.804;24.072;2023-07-13T07:58:04;9.85;;;4.82;;
35877;SDS011;21982;49.804;24.072;2023-07-13T08:00:30;8.95;;;5.03;;
35877;SDS011;21982;49.804;24.072;2023-07-13T08:02:57;9.32;;;5.30;;
35877;SDS011;21982;49.804;24.072;2023-07-13T08:05:23;8.30;;;4.97;;
35877;SDS011;21982;49.804;24.072;2023-07-13T08:07:51;11.40;;;4.70;;
35877;SDS011;21982;49.804;24.072;2023-07-13T08:10:20;8.30;;;5.03;;
35877;SDS011;21982;49.804;24.072;2023-07-13T08:12:47;7.72;;;4.35;;
35877;SDS011;21982;49.804;24.072;2023-07-13T08:15:13;8.85;;;4.80;;
35877;SDS011;21982;49.804;24.072;2023-07-13T08:17:41;13.55;;;6.82;;
35877;SDS011;21982;49.804;24.072;2023-07-13T08:20:06;22.52;;;8.88;;
35877;SDS011;21982;49.804;24.072;2023-07-13T08:22:34;22.95;;;7.30;;
35877;SDS011;21982;49.804;24.072;2023-07-13T08:25:00;18.98;;;6.18;;
35877;SDS011;21982;49.804;24.072;2023-07-13T08:27:26;10.07;;;5.57;;
35877;SDS011;21982;49.804;24.072;2023-07-13T08:29:52;10.02;;;5.97;;
35877;SDS011;21982;49.804;24.072;2023-07-13T08:32:19;10.40;;;5.53;;
35877;SDS011;21982;49.804;24.072;2023-07-13T08:34:47;9.45;;;5.55;;
35877;SDS011;21982;49.804;24.072;2023-07-13T08:37:12;9.82;;;5.20;;
35877;SDS011;21982;49.804;24.072;2023-07-13T08:39:38;7.68;;;4.45;;
35877;SDS011;21982;49.804;24.072;2023-07-13T08:42:13;8.00;;;4.53;;
35877;SDS011;21982;49.804;24.072;2023-07-13T08:47:11;12.32;;;5.88;;
35877;SDS011;21982;49.804;24.072;2023-07-13T08:49:40;8.82;;;5.70;;
35877;SDS011;21982;49.804;24.072;2023-07-13T08:52:13;11.63;;;5.93;;
35877;SDS011;21982;49.804;24.072;2023-07-13T08:54:54;10.73;;;5.35;;
35877;SDS011;21982;49.804;24.072;2023-07-13T08:57:28;9.00;;;5.55;;
35877;SDS011;21982;49.804;24.072;2023-07-13T08:59:58;10.48;;;5.85;;
35877;SDS011;21982;49.804;24.072;2023-07-13T09:02:28;10.90;;;5.38;;
35877;SDS011;21982;49.804;24.072;2023-07-13T09:05:22;9.93;;;6.07;;
35877;SDS011;21982;49.804;24.072;2023-07-13T09:11:00;12.32;;;5.45;;
35877;SDS011;21982;49.804;24.072;2023-07-13T09:13:37;11.93;;;5.78;;
35877;SDS011;21982;49.804;24.072;2023-07-13T09:16:13;13.52;;;5.95;;
35877;SDS011;21982;49.804;24.072;2023-07-13T09:18:41;12.02;;;6.35;;
35877;SDS011;21982;49.804;24.072;2023-07-13T09:23:38;11.20;;;5.85;;
35877;SDS011;21982;49.804;24.072;2023-07-13T09:26:05;11.85;;;6.22;;
35877;SDS011;21982;49.804;24.072;2023-07-13T09:28:37;9.40;;;5.97;;
35877;SDS011;21982;49.804;24.072;2023-07-13T09:33:35;9.30;;;6.35;;
35877;SDS011;21982;49.804;24.072;2023-07-13T09:36:00;11.05;;;6.05;;
35877;SDS011;21982;49.804;24.072;2023-07-13T09:38:27;10.75;;;6.07;;
35877;SDS011;21982;49.804;24.072;2023-07-13T09:41:04;9.68;;;5.43;;
35877;SDS011;21982;49.804;24.072;2023-07-13T09:46:34;10.85;;;6.20;;
35877;SDS011;21982;49.804;24.072;2023-07-13T09:49:00;12.68;;;5.63;;
35877;SDS011;21982;49.804;24.072;2023-07-13T09:51:27;10.57;;;5.70;;
35877;SDS011;21982;49.804;24.072;2023-07-13T09:53:53;10.23;;;5.75;;
35877;SDS011;21982;49.804;24.072;2023-07-13T09:56:22;11.95;;;6.03;;
35877;SDS011;21982;49.804;24.072;2023-07-13T09:58:49;12.43;;;7.03;;
35877;SDS011;21982;49.804;24.072;2023-07-13T10:01:15;13.75;;;6.32;;
35877;SDS011;21982;49.804;24.072;2023-07-13T10:03:51;12.55;;;6.10;;
35877;SDS011;21982;49.804;24.072;2023-07-13T10:06:19;11.27;;;6.63;;
35877;SDS011;21982;49.804;24.072;2023-07-13T10:08:47;15.07;;;7.25;;
35877;SDS011;21982;49.804;24.072;2023-07-13T10:13:42;9.60;;;6.25;;
35877;SDS011;21982;49.804;24.072;2023-07-13T10:16:10;10.13;;;6.90;;
35877;SDS011;21982;49.804;24.072;2023-07-13T10:18:46;11.82;;;6.57;;
35877;SDS011;21982;49.804;24.072;2023-07-13T10:21:13;8.55;;;5.60;;
35877;SDS011;21982;49.804;24.072;2023-07-13T10:23:51;9.90;;;6.47;;
35877;SDS011;21982;49.804;24.072;2023-07-13T10:26:27;10.27;;;6.05;;
35877;SDS011;21982;49.804;24.072;2023-07-13T10:28:57;13.23;;;6.75;;
35877;SDS011;21982;49.804;24.072;2023-07-13T10:31:29;10.07;;;5.35;;
35877;SDS011;21982;49.804;24.072;2023-07-13T10:33:55;10.77;;;6.38;;
35877;SDS011;21982;49.804;24.072;2023-07-13T10:38:55;11.55;;;6.68;;
35877;SDS011;21982;49.804;24.072;2023-07-13T10:41:24;7.65;;;5.43;;
35877;SDS011;21982;49.804;24.072;2023-07-13T10:43:53;10.60;;;5.80;;
35877;SDS011;21982;49.804;24.072;2023-07-13T10:46:22;9.15;;;6.15;;
35877;SDS011;21982;49.804;24.072;2023-07-13T10:49:04;9.57;;;6.03;;
35877;SDS011;21982;49.804;24.072;2023-07-13T10:51:33;11.20;;;6.45;;
35877;SDS011;21982;49.804;24.072;2023-07-13T10:54:16;11.57;;;6.45;;
35877;SDS011;21982;49.804;24.072;2023-07-13T10:56:44;14.10;;;7.70;;
35877;SDS011;21982;49.804;24.072;2023-07-13T10:59:26;12.48;;;7.70;;
35877;SDS011;21982;49.804;24.072;2023-07-13T11:01:55;9.93;;;6.35;;
35877;SDS011;21982;49.804;24.072;2023-07-13T11:04:24;10.32;;;6.30;;
35877;SDS011;21982;49.804;24.072;2023-07-13T11:06:52;10.65;;;6.78;;
35877;SDS011;21982;49.804;24.072;2023-07-13T11:09:34;9.15;;;6.03;;
35877;SDS011;21982;49.804;24.072;2023-07-13T11:12:07;10.80;;;6.32;;
35877;SDS011;21982;49.804;24.072;2023-07-13T11:20:08;9.75;;;5.10;;
35877;SDS011;21982;49.804;24.072;2023-07-13T11:25:32;10.13;;;5.00;;
35877;SDS011;21982;49.804;24.072;2023-07-13T11:35:53;7.10;;;3.92;;
35877;SDS011;21982;49.804;24.072;2023-07-13T11:40:56;9.18;;;5.07;;
35877;SDS011;21982;49.804;24.072;2023-07-13T11:43:28;13.68;;;5.78;;
35877;SDS011;21982;49.804;24.072;2023-07-13T11:45:54;8.25;;;4.53;;
35877;SDS011;21982;49.804;24.072;2023-07-13T11:48:20;7.88;;;5.22;;
35877;SDS011;21982;49.804;24.072;2023-07-13T11:50:52;6.70;;;3.85;;
35877;SDS011;21982;49.804;24.072;2023-07-13T11:53:22;6.38;;;3.83;;
35877;SDS011;21982;49.804;24.072;2023-07-13T11:55:51;5.80;;;3.30;;
35877;SDS011;21982;49.804;24.072;2023-07-13T11:58:17;7.63;;;3.25;;
35877;SDS011;21982;49.804;24.072;2023-07-13T12:00:48;6.07;;;3.08;;
35877;SDS011;21982;49.804;24.072;2023-07-13T12:03:14;5.07;;;2.70;;
35877;SDS011;21982;49.804;24.072;2023-07-13T12:05:58;4.57;;;2.60;;
35877;SDS011;21982;49.804;24.072;2023-07-13T12:08:26;6.47;;;3.15;;
35877;SDS011;21982;49.804;24.072;2023-07-13T12:11:05;6.18;;;3.53;;
35877;SDS011;21982;49.804;24.072;2023-07-13T12:13:39;6.88;;;3.00;;
35877;SDS011;21982;49.804;24.072;2023-07-13T12:16:11;5.65;;;3.42;;
35877;SDS011;21982;49.804;24.072;2023-07-13T12:18:58;9.93;;;3.83;;
35877;SDS011;21982;49.804;24.072;2023-07-13T12:21:32;6.57;;;3.53;;
35877;SDS011;21982;49.804;24.072;2023-07-13T12:23:59;6.00;;;3.53;;
35877;SDS011;21982;49.804;24.072;2023-07-13T12:26:27;5.68;;;3.08;;
35877;SDS011;21982;49.804;24.072;2023-07-13T12:28:54;5.63;;;3.28;;
35877;SDS011;21982;49.804;24.072;2023-07-13T12:34:11;6.93;;;2.88;;
35877;SDS011;21982;49.804;24.072;2023-07-13T12:36:51;6.80;;;2.50;;
35877;SDS011;21982;49.804;24.072;2023-07-13T12:42:22;10.43;;;3.63;;
35877;SDS011;21982;49.804;24.072;2023-07-13T12:45:02;6.93;;;2.85;;
35877;SDS011;21982;49.804;24.072;2023-07-13T12:47:41;8.43;;;3.30;;
35877;SDS011;21982;49.804;24.072;2023-07-13T12:50:14;8.23;;;3.45;;
35877;SDS011;21982;49.804;24.072;2023-07-13T12:52:43;9.48;;;3.78;;
35877;SDS011;21982;49.804;24.072;2023-07-13T12:55:16;6.88;;;3.75;;
35877;SDS011;21982;49.804;24.072;2023-07-13T13:00:24;9.60;;;4.40;;
35877;SDS011;21982;49.804;24.072;2023-07-13T13:02:54;6.72;;;4.25;;
35877;SDS011;21982;49.804;24.072;2023-07-13T13:05:22;7.72;;;4.13;;
35877;SDS011;21982;49.804;24.072;2023-07-13T13:07:50;8.23;;;3.85;;
35877;SDS011;21982;49.804;24.072;2023-07-13T13:10:16;14.73;;;4.72;;
35877;SDS011;21982;49.804;24.072;2023-07-13T13:12:41;7.10;;;4.25;;
35877;SDS011;21982;49.804;24.072;2023-07-13T13:15:10;13.15;;;5.13;;
35877;SDS011;21982;49.804;24.072;2023-07-13T13:17:36;11.40;;;4.25;;
35877;SDS011;21982;49.804;24.072;2023-07-13T13:20:16;15.68;;;5.70;;
35877;SDS011;21982;49.804;24.072;2023-07-13T13:22:46;12.23;;;4.47;;
35877;SDS011;21982;49.804;24.072;2023-07-13T13:25:12;17.85;;;5.15;;
35877;SDS011;21982;49.804;24.072;2023-07-13T13:27:40;12.88;;;5.63;;
35877;SDS011;21982;49.804;24.072;2023-07-13T13:30:10;14.02;;;4.93;;
35877;SDS011;21982;49.804;24.072;2023-07-13T13:32:39;24.67;;;5.82;;
35877;SDS011;21982;49.804;24.072;2023-07-13T13:35:07;20.02;;;7.53;;
35877;SDS011;21982;49.804;24.072;2023-07-13T13:37:38;18.88;;;6.50;;
35877;SDS011;21982;49.804;24.072;2023-07-13T13:40:05;23.20;;;7.15;;
35877;SDS011;21982;49.804;24.072;2023-07-13T13:42:39;18.08;;;6.35;;
35877;SDS011;21982;49.804;24.072;2023-07-13T13:45:04;18.17;;;6.28;;
35877;SDS011;21982;49.804;24.072;2023-07-13T13:47:34;13.63;;;5.07;;
35877;SDS011;21982;49.804;24.072;2023-07-13T13:50:01;14.90;;;6.18;;
35877;SDS011;21982;49.804;24.072;2023-07-13T13:52:27;14.57;;;6.80;;
35877;SDS011;21982;49.804;24.072;2023-07-13T13:54:52;17.48;;;6.90;;
35877;SDS011;21982;49.804;24.072;2023-07-13T13:57:24;17.98;;;6.28;;
35877;SDS011;21982;49.804;24.072;2023-07-13T13:59:53;13.27;;;6.70;;
35877;SDS011;21982;49.804;24.072;2023-07-13T14:04:53;13.18;;;5.40;;
35877;SDS011;21982;49.804;24.072;2023-07-13T14:07:21;11.48;;;5.85;;
35877;SDS011;21982;49.804;24.072;2023-07-13T14:09:47;12.10;;;5.63;;
35877;SDS011;21982;49.804;24.072;2023-07-13T14:12:12;6.82;;;4.22;;
35877;SDS011;21982;49.804;24.072;2023-07-13T14:14:38;11.10;;;4.85;;
35877;SDS011;21982;49.804;24.072;2023-07-13T14:17:04;10.00;;;5.15;;
35877;SDS011;21982;49.804;24.072;2023-07-13T14:19:29;12.15;;;4.80;;
35877;SDS011;21982;49.804;24.072;2023-07-13T14:21:55;10.05;;;5.65;;
35877;SDS011;21982;49.804;24.072;2023-07-13T14:24:20;12.75;;;5.38;;
35877;SDS011;21982;49.804;24.072;2023-07-13T14:26:46;7.95;;;4.05;;
35877;SDS011;21982;49.804;24.072;2023-07-13T14:29:14;10.77;;;4.60;;
35877;SDS011;21982;49.804;24.072;2023-07-13T14:31:42;9.60;;;4.03;;
35877;SDS011;21982;49.804;24.072;2023-07-13T14:34:09;9.35;;;4.82;;
35877;SDS011;21982;49.804;24.072;2023-07-13T14:36:40;7.53;;;4.43;;
35877;SDS011;21982;49.804;24.072;2023-07-13T14:39:16;8.33;;;4.97;;
35877;SDS011;21982;49.804;24.072;2023-07-13T14:41:44;11.02;;;5.00;;
35877;SDS011;21982;49.804;24.072;2023-07-13T14:44:13;9.20;;;5.00;;
35877;SDS011;21982;49.804;24.072;2023-07-13T14:46:40;6.82;;;4.07;;
35877;SDS011;21982;49.804;24.072;2023-07-13T14:49:27;7.75;;;4.68;;
35877;SDS011;21982;49.804;24.072;2023-07-13T14:51:55;8.57;;;4.93;;
35877;SDS011;21982;49.804;24.072;2023-07-13T14:54:35;9.48;;;6.32;;
35877;SDS011;21982;49.804;24.072;2023-07-13T14:57:05;10.13;;;5.57;;
35877;SDS011;21982;49.804;24.072;2023-07-13T14:59:34;8.77;;;4.60;;
35877;SDS011;21982;49.804;24.072;2023-07-13T15:02:00;9.82;;;5.35;;
35877;SDS011;21982;49.804;24.072;2023-07-13T15:04:26;9.48;;;4.85;;
35877;SDS011;21982;49.804;24.072;2023-07-13T15:06:56;12.48;;;6.40;;
35877;SDS011;21982;49.804;24.072;2023-07-13T15:09:24;11.05;;;6.03;;
35877;SDS011;21982;49.804;24.072;2023-07-13T15:11:51;8.80;;;5.35;;
35877;SDS011;21982;49.804;24.072;2023-07-13T15:14:18;9.90;;;6.28;;
35877;SDS011;21982;49.804;24.072;2023-07-13T15:16:43;11.65;;;6.22;;
35877;SDS011;21982;49.804;24.072;2023-07-13T15:19:11;10.88;;;7.15;;
35877;SDS011;21982;49.804;24.072;2023-07-13T15:21:36;10.55;;;6.95;;
35877;SDS011;21982;49.804;24.072;2023-07-13T15:24:02;13.65;;;6.85;;
35877;SDS011;21982;49.804;24.072;2023-07-13T15:26:28;11.75;;;5.50;;